createdAt,value
2023-01-29T00:00:09.804Z,-5.29
2023-01-29T00:00:39.251Z,-5.15
2023-01-29T00:01:11.800Z,-5.15
2023-01-29T00:01:45.648Z,-5.15
2023-01-29T00:02:14.955Z,-5.15
2023-01-29T00:02:36.351Z,-5.26
2023-01-29T00:03:03.001Z,-5.15
2023-01-29T00:03:34.801Z,-5.26
2023-01-29T00:04:07.353Z,-5.26
2023-01-29T00:04:38.780Z,-5.26
2023-01-29T00:05:26.481Z,-5.26
2023-01-29T00:05:36.572Z,-5.26
2023-01-29T00:05:59.132Z,-5.26
2023-01-29T00:06:30.882Z,-5.26
2023-01-29T00:06:47.896Z,-5.26
2023-01-29T00:07:18.879Z,-5.26
2023-01-29T00:07:40.688Z,-5.26
2023-01-29T00:08:07.758Z,-5.26
2023-01-29T00:08:39.262Z,-5.26
2023-01-29T00:09:13.743Z,-5.26
2023-01-29T00:09:37.154Z,-5.26
2023-01-29T00:09:59.545Z,-5.26
2023-01-29T00:10:32.512Z,-5.26
2023-01-29T00:11:05.428Z,-5.40
2023-01-29T00:11:35.095Z,-5.40
2023-01-29T00:12:09.116Z,-5.40
2023-01-29T00:12:39.261Z,-5.40
2023-01-29T00:13:11.238Z,-5.40
2023-01-29T00:13:36.607Z,-5.40
2023-01-29T00:13:59.118Z,-5.40
2023-01-29T00:14:31.622Z,-5.40
2023-01-29T00:15:04.945Z,-5.40
2023-01-29T00:15:36.857Z,-5.40
2023-01-29T00:16:07.605Z,-5.40
2023-01-29T00:16:39.401Z,-5.40
2023-01-29T00:17:11.769Z,-5.26
2023-01-29T00:17:37.230Z,-5.40
2023-01-29T00:17:59.289Z,-5.26
2023-01-29T00:18:31.350Z,-5.40
2023-01-29T00:18:48.090Z,-5.40
2023-01-29T00:19:19.244Z,-5.40
2023-01-29T00:19:40.673Z,-5.40
2023-01-29T00:20:09.089Z,-5.38
2023-01-29T00:20:39.558Z,-5.51
2023-01-29T00:21:10.891Z,-5.51
2023-01-29T00:21:36.577Z,-5.38
2023-01-29T00:21:59.069Z,-5.51
2023-01-29T00:22:31.412Z,-5.51
2023-01-29T00:22:47.604Z,-5.51
2023-01-29T00:23:18.983Z,-5.51
2023-01-29T00:23:41.337Z,-5.51
2023-01-29T00:24:08.141Z,-5.38
2023-01-29T00:24:39.441Z,-5.38
2023-01-29T00:25:12.780Z,-5.38
2023-01-29T00:25:36.670Z,-5.38
2023-01-29T00:26:00.358Z,-5.51
2023-01-29T00:26:31.015Z,-5.51
2023-01-29T00:26:49.196Z,-5.38
2023-01-29T00:27:19.051Z,-5.38
2023-01-29T00:27:41.440Z,-5.38
2023-01-29T00:28:09.389Z,-5.38
2023-01-29T00:28:39.635Z,-5.38
2023-01-29T00:29:12.385Z,-5.38
2023-01-29T00:29:37.338Z,-5.48
2023-01-29T00:29:59.548Z,-5.48
2023-01-29T00:30:33.078Z,-5.48
2023-01-29T00:31:03.002Z,-5.48
2023-01-29T00:31:35.333Z,-5.48
2023-01-29T00:32:10.637Z,-5.48
2023-01-29T00:32:39.921Z,-5.48
2023-01-29T00:33:11.709Z,-5.59
2023-01-29T00:33:37.214Z,-5.59
2023-01-29T00:34:00.504Z,-5.59
2023-01-29T00:34:30.810Z,-5.59
2023-01-29T00:34:47.333Z,-5.59
2023-01-29T00:35:19.284Z,-5.59
2023-01-29T00:35:40.506Z,-5.59
2023-01-29T00:36:07.513Z,-5.59
2023-01-29T00:36:38.830Z,-5.64
2023-01-29T00:37:11.609Z,-5.64
2023-01-29T00:37:36.657Z,-5.59
2023-01-29T00:37:59.388Z,-5.59
2023-01-29T00:38:30.950Z,-5.59
2023-01-29T00:38:47.463Z,-5.59
2023-01-29T00:39:19.064Z,-5.59
2023-01-29T00:39:47.773Z,-5.59
2023-01-29T00:40:08.055Z,-5.59
2023-01-29T00:40:38.971Z,-5.59
2023-01-29T00:41:11.305Z,-5.59
2023-01-29T00:41:36.844Z,-5.59
2023-01-29T00:41:59.031Z,-5.59
2023-01-29T00:42:30.955Z,-5.59
2023-01-29T00:42:47.541Z,-5.59
2023-01-29T00:43:18.853Z,-5.59
2023-01-29T00:43:40.524Z,-5.59
2023-01-29T00:44:07.386Z,-5.64
2023-01-29T00:44:39.130Z,-5.64
2023-01-29T00:45:12.223Z,-5.64
2023-01-29T00:45:37.597Z,-5.64
2023-01-29T00:45:59.968Z,-5.64
2023-01-29T00:46:32.797Z,-5.64
2023-01-29T00:47:03.953Z,-5.64
2023-01-29T00:47:35.450Z,-5.64
2023-01-29T00:48:07.795Z,-5.64
2023-01-29T00:48:40.785Z,-5.59
2023-01-29T00:49:11.319Z,-5.59
2023-01-29T00:49:37.246Z,-5.73
2023-01-29T00:49:59.106Z,-5.64
2023-01-29T00:50:31.990Z,-5.64
2023-01-29T00:51:04.534Z,-5.64
2023-01-29T00:51:36.713Z,-5.64
2023-01-29T00:52:08.421Z,-5.64
2023-01-29T00:52:39.405Z,-5.64
2023-01-29T00:53:11.889Z,-5.75
2023-01-29T00:53:37.682Z,-5.75
2023-01-29T00:53:58.932Z,-5.75
2023-01-29T00:54:33.132Z,-5.75
2023-01-29T00:55:04.620Z,-5.75
2023-01-29T00:55:36.880Z,-5.72
2023-01-29T00:56:07.262Z,-5.72
2023-01-29T00:56:38.768Z,-5.72
2023-01-29T00:57:11.658Z,-5.72
2023-01-29T00:57:37.361Z,-5.72
2023-01-29T00:57:59.722Z,-5.72
2023-01-29T00:58:31.976Z,-5.72
2023-01-29T00:59:04.572Z,-5.72
2023-01-29T00:59:36.192Z,-5.72
2023-01-29T01:00:09.570Z,-5.72
2023-01-29T01:00:39.821Z,-5.72
2023-01-29T01:01:12.283Z,-5.72
2023-01-29T01:01:38.253Z,-5.72
2023-01-29T01:01:59.045Z,-5.72
2023-01-29T01:02:32.197Z,-5.60
2023-01-29T01:03:03.194Z,-5.60
2023-01-29T01:03:36.878Z,-5.60
2023-01-29T01:04:08.441Z,-5.60
2023-01-29T01:04:40.832Z,-5.72
2023-01-29T01:05:12.185Z,-5.72
2023-01-29T01:05:37.285Z,-5.72
2023-01-29T01:05:59.722Z,-5.72
2023-01-29T01:06:31.644Z,-5.72
2023-01-29T01:07:03.433Z,-5.72
2023-01-29T01:07:35.496Z,-5.57
2023-01-29T01:08:08.992Z,-5.57
2023-01-29T01:08:39.327Z,-5.57
2023-01-29T01:09:12.514Z,-5.57
2023-01-29T01:09:37.844Z,-5.57
2023-01-29T01:10:00.131Z,-5.72
2023-01-29T01:10:31.729Z,-5.57
2023-01-29T01:11:04.415Z,-5.72
2023-01-29T01:11:35.336Z,-5.60
2023-01-29T01:12:09.933Z,-5.60
2023-01-29T01:12:39.502Z,-5.60
2023-01-29T01:13:11.858Z,-5.60
2023-01-29T01:13:37.092Z,-5.46
2023-01-29T01:14:00.643Z,-5.46
2023-01-29T01:14:31.176Z,-5.46
2023-01-29T01:14:47.574Z,-5.46
2023-01-29T01:15:19.862Z,-5.46
2023-01-29T01:15:40.484Z,-5.46
2023-01-29T01:16:07.288Z,-5.57
2023-01-29T01:16:40.977Z,-5.57
2023-01-29T01:17:11.133Z,-5.57
2023-01-29T01:17:37.153Z,-5.57
2023-01-29T01:18:00.245Z,-5.57
2023-01-29T01:18:31.385Z,-5.57
2023-01-29T01:19:02.964Z,-5.57
2023-01-29T01:19:36.104Z,-5.57
2023-01-29T01:20:09.353Z,-5.57
2023-01-29T01:20:41.823Z,-5.57
2023-01-29T01:21:12.392Z,-5.57
2023-01-29T01:21:36.985Z,-5.68
2023-01-29T01:22:00.483Z,-5.68
2023-01-29T01:22:31.860Z,-5.68
2023-01-29T01:23:03.058Z,-5.68
2023-01-29T01:23:35.140Z,-5.68
2023-01-29T01:24:08.489Z,-5.68
2023-01-29T01:24:40.205Z,-5.68
2023-01-29T01:25:12.778Z,-5.79
2023-01-29T01:25:36.952Z,-5.79
2023-01-29T01:25:59.831Z,-5.79
2023-01-29T01:26:31.923Z,-5.79
2023-01-29T01:27:03.212Z,-5.79
2023-01-29T01:27:35.572Z,-5.79
2023-01-29T01:28:08.138Z,-5.79
2023-01-29T01:28:39.481Z,-5.84
2023-01-29T01:29:12.081Z,-5.84
2023-01-29T01:29:36.581Z,-5.84
2023-01-29T01:29:59.205Z,-5.84
2023-01-29T01:30:31.996Z,-5.84
2023-01-29T01:30:47.717Z,-5.99
2023-01-29T01:31:19.106Z,-5.84
2023-01-29T01:31:40.472Z,-5.84
2023-01-29T01:32:07.390Z,-5.84
2023-01-29T01:32:38.827Z,-5.84
2023-01-29T01:33:11.082Z,-5.84
2023-01-29T01:33:27.400Z,-5.84
2023-01-29T01:33:58.865Z,-5.84
2023-01-29T01:34:31.563Z,-5.99
2023-01-29T01:35:04.891Z,-5.99
2023-01-29T01:35:35.551Z,-5.99
2023-01-29T01:36:08.492Z,-5.99
2023-01-29T01:36:39.453Z,-5.99
2023-01-29T01:37:11.894Z,-5.99
2023-01-29T01:37:37.105Z,-5.99
2023-01-29T01:37:59.671Z,-5.99
2023-01-29T01:38:31.786Z,-5.99
2023-01-29T01:39:03.200Z,-6.10
2023-01-29T01:39:36.585Z,-5.95
2023-01-29T01:40:08.963Z,-5.95
2023-01-29T01:40:39.681Z,-5.95
2023-01-29T01:41:12.634Z,-5.95
2023-01-29T01:41:36.533Z,-5.95
2023-01-29T01:41:59.254Z,-6.07
2023-01-29T01:42:31.227Z,-6.07
2023-01-29T01:43:02.942Z,-6.07
2023-01-29T01:43:36.073Z,-6.07
2023-01-29T01:44:08.359Z,-6.07
2023-01-29T01:44:39.421Z,-6.07
2023-01-29T01:45:12.482Z,-6.18
2023-01-29T01:45:37.987Z,-6.18
2023-01-29T01:46:00.143Z,-6.18
2023-01-29T01:46:31.127Z,-6.07
2023-01-29T01:47:03.141Z,-6.07
2023-01-29T01:47:35.333Z,-6.07
2023-01-29T01:48:09.434Z,-6.07
2023-01-29T01:48:40.293Z,-6.07
2023-01-29T01:49:11.680Z,-6.07
2023-01-29T01:49:36.745Z,-6.07
2023-01-29T01:50:02.455Z,-6.07
2023-01-29T01:50:31.581Z,-6.07
2023-01-29T01:51:03.261Z,-6.07
2023-01-29T01:51:35.152Z,-6.07
2023-01-29T01:52:09.005Z,-6.07
2023-01-29T01:52:39.525Z,-6.07
2023-01-29T01:53:11.250Z,-6.07
2023-01-29T01:53:37.189Z,-6.07
2023-01-29T01:54:00.385Z,-6.07
2023-01-29T01:54:31.036Z,-6.07
2023-01-29T01:54:48.025Z,-6.07
2023-01-29T01:55:21.111Z,-6.07
2023-01-29T01:55:40.779Z,-6.07
2023-01-29T01:56:08.746Z,-6.07
2023-01-29T01:56:39.410Z,-6.07
2023-01-29T01:57:12.482Z,-6.07
2023-01-29T01:57:37.267Z,-6.07
2023-01-29T01:57:59.631Z,-6.07
2023-01-29T01:58:32.401Z,-6.07
2023-01-29T01:59:03.740Z,-6.07
2023-01-29T01:59:35.446Z,-6.07
2023-01-29T02:00:10.593Z,-6.07
2023-01-29T02:00:39.095Z,-6.07
2023-01-29T02:01:14.318Z,-6.07
2023-01-29T02:01:39.967Z,-6.07
2023-01-29T02:01:59.881Z,-6.07
2023-01-29T02:02:33.433Z,-6.07
2023-01-29T02:03:03.163Z,-6.22
2023-01-29T02:03:35.572Z,-6.22
2023-01-29T02:04:08.515Z,-6.32
2023-01-29T02:04:40.400Z,-6.32
2023-01-29T02:05:14.038Z,-6.18
2023-01-29T02:05:36.962Z,-6.18
2023-01-29T02:05:59.308Z,-6.07
2023-01-29T02:06:31.127Z,-6.22
2023-01-29T02:06:47.711Z,-6.22
2023-01-29T02:07:19.129Z,-6.22
2023-01-29T02:07:40.447Z,-6.22
2023-01-29T02:08:07.661Z,-6.22
2023-01-29T02:08:38.960Z,-6.22
2023-01-29T02:09:11.092Z,-6.22
2023-01-29T02:09:27.392Z,-6.22
2023-01-29T02:09:59.028Z,-6.22
2023-01-29T02:10:31.609Z,-6.22
2023-01-29T02:10:47.811Z,-6.32
2023-01-29T02:11:18.945Z,-6.32
2023-01-29T02:11:40.406Z,-6.32
2023-01-29T02:12:07.368Z,-6.18
2023-01-29T02:12:38.920Z,-6.18
2023-01-29T02:13:11.040Z,-6.18
2023-01-29T02:13:27.405Z,-6.18
2023-01-29T02:13:59.069Z,-6.18
2023-01-29T02:14:31.111Z,-6.18
2023-01-29T02:14:47.545Z,-6.18
2023-01-29T02:15:20.037Z,-6.18
2023-01-29T02:15:40.659Z,-6.18
2023-01-29T02:16:07.375Z,-6.18
2023-01-29T02:16:38.901Z,-6.18
2023-01-29T02:17:11.719Z,-6.32
2023-01-29T02:17:36.527Z,-6.18
2023-01-29T02:17:58.912Z,-6.32
2023-01-29T02:18:31.118Z,-6.32
2023-01-29T02:18:47.597Z,-6.32
2023-01-29T02:19:19.103Z,-6.32
2023-01-29T02:19:40.475Z,-6.32
2023-01-29T02:20:08.841Z,-6.32
2023-01-29T02:20:39.510Z,-6.32
2023-01-29T02:21:11.135Z,-6.32
2023-01-29T02:21:27.513Z,-6.32
2023-01-29T02:21:59.275Z,-6.32
2023-01-29T02:22:31.031Z,-6.32
2023-01-29T02:22:48.069Z,-6.32
2023-01-29T02:23:19.004Z,-6.32
2023-01-29T02:23:40.627Z,-6.32
2023-01-29T02:24:07.421Z,-6.32
2023-01-29T02:24:38.984Z,-6.32
2023-01-29T02:25:11.447Z,-6.32
2023-01-29T02:25:27.396Z,-6.32
2023-01-29T02:25:59.359Z,-6.32
2023-01-29T02:26:31.109Z,-6.32
2023-01-29T02:26:47.630Z,-6.43
2023-01-29T02:27:19.096Z,-6.43
2023-01-29T02:27:40.462Z,-6.29
2023-01-29T02:28:07.285Z,-6.29
2023-01-29T02:28:38.982Z,-6.43
2023-01-29T02:29:11.006Z,-6.29
2023-01-29T02:29:27.462Z,-6.29
2023-01-29T02:29:59.035Z,-6.29
2023-01-29T02:30:32.069Z,-6.29
2023-01-29T02:30:47.920Z,-6.29
2023-01-29T02:31:19.370Z,-6.29
2023-01-29T02:31:40.500Z,-6.29
2023-01-29T02:32:07.334Z,-6.34
2023-01-29T02:32:39.030Z,-6.29
2023-01-29T02:33:11.151Z,-6.34
2023-01-29T02:33:27.661Z,-6.34
2023-01-29T02:33:59.575Z,-6.34
2023-01-29T02:34:31.174Z,-6.34
2023-01-29T02:34:47.909Z,-6.34
2023-01-29T02:35:19.633Z,-6.34
2023-01-29T02:35:40.609Z,-6.34
2023-01-29T02:36:07.363Z,-6.34
2023-01-29T02:36:38.949Z,-6.34
2023-01-29T02:37:11.005Z,-6.34
2023-01-29T02:37:28.432Z,-6.34
2023-01-29T02:38:00.492Z,-6.34
2023-01-29T02:38:31.926Z,-6.34
2023-01-29T02:39:03.457Z,-6.34
2023-01-29T02:39:34.957Z,-6.34
2023-01-29T02:40:08.070Z,-6.34
2023-01-29T02:40:39.105Z,-6.34
2023-01-29T02:41:11.043Z,-6.20
2023-01-29T02:41:37.105Z,-6.20
2023-01-29T02:41:58.979Z,-6.20
2023-01-29T02:42:31.179Z,-6.20
2023-01-29T02:43:03.086Z,-6.34
2023-01-29T02:43:35.260Z,-6.20
2023-01-29T02:44:08.723Z,-6.34
2023-01-29T02:44:40.285Z,-6.34
2023-01-29T02:45:13.959Z,-6.34
2023-01-29T02:45:38.502Z,-6.34
2023-01-29T02:46:00.589Z,-6.29
2023-01-29T02:46:33.683Z,-6.15
2023-01-29T02:47:03.389Z,-6.29
2023-01-29T02:47:34.935Z,-6.29
2023-01-29T02:48:07.823Z,-6.29
2023-01-29T02:48:40.201Z,-6.29
2023-01-29T02:49:13.299Z,-6.15
2023-01-29T02:49:38.379Z,-6.29
2023-01-29T02:50:00.167Z,-6.15
2023-01-29T02:50:32.953Z,-6.15
2023-01-29T02:51:04.698Z,-6.15
2023-01-29T02:51:35.840Z,-6.15
2023-01-29T02:52:07.602Z,-6.15
2023-01-29T02:52:39.079Z,-6.15
2023-01-29T02:53:12.619Z,-6.15
2023-01-29T02:53:37.164Z,-6.15
2023-01-29T02:53:59.538Z,-6.15
2023-01-29T02:54:31.422Z,-6.15
2023-01-29T02:55:05.401Z,-6.15
2023-01-29T02:55:35.557Z,-6.15
2023-01-29T02:56:08.276Z,-6.15
2023-01-29T02:56:39.456Z,-6.29
2023-01-29T02:57:11.918Z,-6.29
2023-01-29T02:57:36.819Z,-6.15
2023-01-29T02:57:59.151Z,-6.15
2023-01-29T02:58:31.103Z,-6.34
2023-01-29T02:59:03.657Z,-6.20
2023-01-29T02:59:36.601Z,-6.20
2023-01-29T03:00:09.695Z,-6.20
2023-01-29T03:00:39.372Z,-6.20
2023-01-29T03:01:11.954Z,-6.20
2023-01-29T03:01:36.770Z,-6.20
2023-01-29T03:01:59.506Z,-6.20
2023-01-29T03:02:31.273Z,-6.20
2023-01-29T03:03:03.430Z,-6.20
2023-01-29T03:03:35.696Z,-6.20
2023-01-29T03:04:08.934Z,-6.20
2023-01-29T03:04:38.980Z,-6.20
2023-01-29T03:05:11.368Z,-6.20
2023-01-29T03:05:36.871Z,-6.20
2023-01-29T03:05:59.969Z,-6.20
2023-01-29T03:06:31.342Z,-6.20
2023-01-29T03:07:03.430Z,-6.20
2023-01-29T03:07:35.348Z,-6.20
2023-01-29T03:08:10.061Z,-6.20
2023-01-29T03:08:39.534Z,-6.20
2023-01-29T03:09:11.627Z,-6.20
2023-01-29T03:09:37.195Z,-6.20
2023-01-29T03:09:59.469Z,-6.20
2023-01-29T03:10:31.489Z,-6.31
2023-01-29T03:11:03.477Z,-6.31
2023-01-29T03:11:35.224Z,-6.31
2023-01-29T03:12:08.660Z,-6.31
2023-01-29T03:12:39.271Z,-6.31
2023-01-29T03:13:11.640Z,-6.31
2023-01-29T03:13:36.675Z,-6.31
2023-01-29T03:14:00.376Z,-6.31
2023-01-29T03:14:31.703Z,-6.31
2023-01-29T03:15:05.499Z,-6.31
2023-01-29T03:15:35.693Z,-6.31
2023-01-29T03:16:07.627Z,-6.31
2023-01-29T03:16:40.740Z,-6.31
2023-01-29T03:17:11.409Z,-6.43
2023-01-29T03:17:37.073Z,-6.43
2023-01-29T03:18:01.170Z,-6.43
2023-01-29T03:18:31.364Z,-6.43
2023-01-29T03:19:03.197Z,-6.43
2023-01-29T03:19:35.489Z,-6.43
2023-01-29T03:20:08.933Z,-6.43
2023-01-29T03:20:41.748Z,-6.43
2023-01-29T03:21:11.500Z,-6.43
2023-01-29T03:21:37.982Z,-6.43
2023-01-29T03:21:59.375Z,-6.43
2023-01-29T03:22:31.128Z,-6.43
2023-01-29T03:23:03.040Z,-6.43
2023-01-29T03:23:35.607Z,-6.43
2023-01-29T03:24:07.377Z,-6.43
2023-01-29T03:24:39.033Z,-6.43
2023-01-29T03:25:11.676Z,-6.43
2023-01-29T03:25:36.871Z,-6.43
2023-01-29T03:25:59.431Z,-6.43
2023-01-29T03:26:31.164Z,-6.54
2023-01-29T03:27:03.118Z,-6.54
2023-01-29T03:27:35.043Z,-6.54
2023-01-29T03:28:07.420Z,-6.40
2023-01-29T03:28:39.036Z,-6.54
2023-01-29T03:29:11.119Z,-6.40
2023-01-29T03:29:36.531Z,-6.40
2023-01-29T03:29:59.357Z,-6.54
2023-01-29T03:30:32.426Z,-6.40
2023-01-29T03:31:03.071Z,-6.40
2023-01-29T03:31:35.438Z,-6.40
2023-01-29T03:32:07.633Z,-6.40
2023-01-29T03:32:39.736Z,-6.54
2023-01-29T03:33:11.052Z,-6.54
2023-01-29T03:33:36.439Z,-6.40
2023-01-29T03:33:59.121Z,-6.40
2023-01-29T03:34:31.154Z,-6.43
2023-01-29T03:35:04.280Z,-6.54
2023-01-29T03:35:35.231Z,-6.43
2023-01-29T03:36:07.479Z,-6.43
2023-01-29T03:36:39.083Z,-6.43
2023-01-29T03:37:11.252Z,-6.54
2023-01-29T03:37:36.523Z,-6.54
2023-01-29T03:37:59.099Z,-6.54
2023-01-29T03:38:31.213Z,-6.54
2023-01-29T03:39:03.135Z,-6.54
2023-01-29T03:39:35.091Z,-6.54
2023-01-29T03:40:07.805Z,-6.65
2023-01-29T03:40:39.125Z,-6.65
2023-01-29T03:41:11.282Z,-6.65
2023-01-29T03:41:36.556Z,-6.65
2023-01-29T03:41:59.155Z,-6.65
2023-01-29T03:42:31.309Z,-6.65
2023-01-29T03:43:03.134Z,-6.65
2023-01-29T03:43:35.452Z,-6.65
2023-01-29T03:44:07.395Z,-6.54
2023-01-29T03:44:39.026Z,-6.54
2023-01-29T03:45:12.779Z,-6.65
2023-01-29T03:45:36.975Z,-6.65
2023-01-29T03:45:59.656Z,-6.65
2023-01-29T03:46:31.149Z,-6.65
2023-01-29T03:47:03.427Z,-6.65
2023-01-29T03:47:35.221Z,-6.65
2023-01-29T03:48:07.362Z,-6.65
2023-01-29T03:48:39.037Z,-6.65
2023-01-29T03:49:11.095Z,-6.51
2023-01-29T03:49:36.503Z,-6.51
2023-01-29T03:49:59.160Z,-6.51
2023-01-29T03:50:31.606Z,-6.65
2023-01-29T03:51:03.095Z,-6.51
2023-01-29T03:51:35.047Z,-6.51
2023-01-29T03:52:07.418Z,-6.51
2023-01-29T03:52:39.011Z,-6.51
2023-01-29T03:53:11.281Z,-6.51
2023-01-29T03:53:36.607Z,-6.51
2023-01-29T03:53:59.083Z,-6.51
2023-01-29T03:54:31.401Z,-6.51
2023-01-29T03:55:04.214Z,-6.51
2023-01-29T03:55:35.699Z,-6.51
2023-01-29T03:56:07.383Z,-6.51
2023-01-29T03:56:39.046Z,-6.51
2023-01-29T03:57:11.206Z,-6.51
2023-01-29T03:57:36.510Z,-6.51
2023-01-29T03:57:59.037Z,-6.51
2023-01-29T03:58:31.169Z,-6.51
2023-01-29T03:59:03.082Z,-6.51
2023-01-29T03:59:35.320Z,-6.51
2023-01-29T04:00:09.702Z,-6.51
2023-01-29T04:00:39.291Z,-6.51
2023-01-29T04:01:11.341Z,-6.56
2023-01-29T04:01:37.051Z,-6.56
2023-01-29T04:01:59.144Z,-6.56
2023-01-29T04:02:31.188Z,-6.56
2023-01-29T04:03:03.248Z,-6.56
2023-01-29T04:03:35.123Z,-6.70
2023-01-29T04:04:07.372Z,-6.70
2023-01-29T04:04:39.149Z,-6.70
2023-01-29T04:05:11.739Z,-6.70
2023-01-29T04:05:36.525Z,-6.70
2023-01-29T04:05:59.823Z,-6.70
2023-01-29T04:06:31.422Z,-6.70
2023-01-29T04:07:03.050Z,-6.70
2023-01-29T04:07:35.363Z,-6.70
2023-01-29T04:08:07.395Z,-6.70
2023-01-29T04:08:39.117Z,-6.70
2023-01-29T04:09:11.255Z,-6.70
2023-01-29T04:09:36.894Z,-6.70
2023-01-29T04:09:59.107Z,-6.70
2023-01-29T04:10:31.575Z,-6.70
2023-01-29T04:11:03.179Z,-6.70
2023-01-29T04:11:35.289Z,-6.70
2023-01-29T04:12:07.374Z,-6.70
2023-01-29T04:12:39.082Z,-6.70
2023-01-29T04:13:11.364Z,-6.70
2023-01-29T04:13:36.859Z,-6.70
2023-01-29T04:13:59.100Z,-6.70
2023-01-29T04:14:31.202Z,-6.70
2023-01-29T04:15:04.791Z,-6.70
2023-01-29T04:15:35.169Z,-6.70
2023-01-29T04:16:07.460Z,-6.65
2023-01-29T04:16:36.755Z,-6.65
2023-01-29T04:16:55.123Z,-6.70
2023-01-29T04:17:27.520Z,-6.70
2023-01-29T04:17:59.190Z,-6.70
2023-01-29T04:18:31.454Z,-6.70
2023-01-29T04:19:03.165Z,-6.70
2023-01-29T04:19:35.451Z,-6.70
2023-01-29T04:20:08.803Z,-6.70
2023-01-29T04:20:39.675Z,-6.70
2023-01-29T04:21:11.318Z,-6.70
2023-01-29T04:21:36.719Z,-6.81
2023-01-29T04:21:59.531Z,-6.81
2023-01-29T04:22:31.160Z,-6.81
2023-01-29T04:23:03.050Z,-6.81
2023-01-29T04:23:35.145Z,-6.81
2023-01-29T04:24:07.397Z,-6.81
2023-01-29T04:24:39.234Z,-6.81
2023-01-29T04:25:11.663Z,-6.81
2023-01-29T04:25:37.080Z,-6.81
2023-01-29T04:25:59.458Z,-6.81
2023-01-29T04:26:31.339Z,-6.81
2023-01-29T04:27:03.362Z,-6.81
2023-01-29T04:27:35.258Z,-6.92
2023-01-29T04:28:07.465Z,-6.92
2023-01-29T04:28:36.531Z,-6.92
2023-01-29T04:28:55.181Z,-6.92
2023-01-29T04:29:29.993Z,-6.92
2023-01-29T04:29:59.197Z,-6.92
2023-01-29T04:30:32.457Z,-6.92
2023-01-29T04:31:03.361Z,-6.92
2023-01-29T04:31:35.312Z,-6.92
2023-01-29T04:32:07.411Z,-6.92
2023-01-29T04:32:39.080Z,-6.92
2023-01-29T04:33:11.390Z,-7.03
2023-01-29T04:33:36.699Z,-7.03
2023-01-29T04:33:59.111Z,-7.03
2023-01-29T04:34:31.312Z,-7.03
2023-01-29T04:35:04.295Z,-7.03
2023-01-29T04:35:35.407Z,-7.03
2023-01-29T04:36:07.848Z,-7.03
2023-01-29T04:36:39.166Z,-7.03
2023-01-29T04:37:11.483Z,-7.03
2023-01-29T04:37:36.616Z,-7.03
2023-01-29T04:37:59.092Z,-7.03
2023-01-29T04:38:31.322Z,-7.03
2023-01-29T04:39:03.106Z,-6.90
2023-01-29T04:39:35.366Z,-7.03
2023-01-29T04:40:08.436Z,-7.03
2023-01-29T04:40:36.863Z,-7.03
2023-01-29T04:40:55.693Z,-7.03
2023-01-29T04:41:27.595Z,-7.03
2023-01-29T04:41:59.191Z,-7.03
2023-01-29T04:42:31.453Z,-6.90
2023-01-29T04:43:03.149Z,-7.03
2023-01-29T04:43:35.239Z,-6.90
2023-01-29T04:44:07.519Z,-6.90
2023-01-29T04:44:39.082Z,-6.90
2023-01-29T04:45:12.301Z,-6.90
2023-01-29T04:45:36.635Z,-6.90
2023-01-29T04:45:59.602Z,-6.90
2023-01-29T04:46:31.274Z,-6.90
2023-01-29T04:47:03.253Z,-6.90
2023-01-29T04:47:35.870Z,-7.01
2023-01-29T04:48:07.401Z,-7.01
2023-01-29T04:48:39.319Z,-7.01
2023-01-29T04:49:11.463Z,-7.01
2023-01-29T04:49:36.939Z,-7.01
2023-01-29T04:49:59.227Z,-7.01
2023-01-29T04:50:31.791Z,-7.01
2023-01-29T04:51:03.114Z,-7.01
2023-01-29T04:51:35.227Z,-7.01
2023-01-29T04:52:07.472Z,-7.01
2023-01-29T04:52:39.135Z,-7.01
2023-01-29T04:53:11.430Z,-7.01
2023-01-29T04:53:36.572Z,-7.01
2023-01-29T04:53:59.226Z,-7.01
2023-01-29T04:54:31.414Z,-7.01
2023-01-29T04:55:04.183Z,-7.01
2023-01-29T04:55:35.374Z,-7.01
2023-01-29T04:56:07.465Z,-7.01
2023-01-29T04:56:36.536Z,-7.01
2023-01-29T04:56:55.266Z,-7.06
2023-01-29T04:57:27.413Z,-7.06
2023-01-29T04:57:59.470Z,-7.06
2023-01-29T04:58:31.310Z,-7.06
2023-01-29T04:59:03.141Z,-7.06
2023-01-29T04:59:35.513Z,-7.06
2023-01-29T05:00:09.620Z,-7.06
2023-01-29T05:00:37.043Z,-7.06
2023-01-29T05:00:55.803Z,-7.17
2023-01-29T05:01:27.467Z,-7.17
2023-01-29T05:01:59.241Z,-7.06
2023-01-29T05:02:31.357Z,-7.17
2023-01-29T05:03:03.190Z,-7.17
2023-01-29T05:03:35.533Z,-7.06
2023-01-29T05:04:07.371Z,-7.06
2023-01-29T05:04:36.624Z,-7.06
2023-01-29T05:04:55.260Z,-7.06
2023-01-29T05:05:27.990Z,-7.06
2023-01-29T05:05:59.234Z,-7.06
2023-01-29T05:06:31.444Z,-7.06
2023-01-29T05:07:03.204Z,-7.06
2023-01-29T05:07:35.281Z,-7.06
2023-01-29T05:08:07.454Z,-7.01
2023-01-29T05:08:36.482Z,-7.01
2023-01-29T05:08:55.308Z,-7.06
2023-01-29T05:09:27.480Z,-7.06
2023-01-29T05:09:59.774Z,-7.06
2023-01-29T05:10:31.795Z,-7.01
2023-01-29T05:11:03.313Z,-7.01
2023-01-29T05:11:35.231Z,-7.06
2023-01-29T05:12:07.411Z,-7.06
2023-01-29T05:12:36.644Z,-7.06
2023-01-29T05:12:55.327Z,-7.06
2023-01-29T05:13:27.539Z,-7.06
2023-01-29T05:13:59.163Z,-7.01
2023-01-29T05:14:31.436Z,-7.01
2023-01-29T05:15:05.026Z,-7.01
2023-01-29T05:15:35.429Z,-7.01
2023-01-29T05:16:07.507Z,-7.01
2023-01-29T05:16:36.644Z,-7.01
2023-01-29T05:16:55.298Z,-7.01
2023-01-29T05:17:27.444Z,-7.01
2023-01-29T05:17:59.191Z,-7.01
2023-01-29T05:18:31.355Z,-7.01
2023-01-29T05:19:03.132Z,-7.01
2023-01-29T05:19:35.351Z,-7.01
2023-01-29T05:20:08.642Z,-7.06
2023-01-29T05:20:37.233Z,-7.06
2023-01-29T05:20:55.702Z,-7.06
2023-01-29T05:21:27.751Z,-7.06
2023-01-29T05:21:59.282Z,-7.06
2023-01-29T05:22:31.530Z,-7.06
2023-01-29T05:23:03.271Z,-7.06
2023-01-29T05:23:35.200Z,-7.06
2023-01-29T05:24:07.496Z,-7.06
2023-01-29T05:24:36.591Z,-7.06
2023-01-29T05:24:55.282Z,-7.06
2023-01-29T05:25:28.312Z,-7.06
2023-01-29T05:25:59.175Z,-7.06
2023-01-29T05:26:31.343Z,-7.06
2023-01-29T05:27:03.229Z,-7.06
2023-01-29T05:27:35.763Z,-7.06
2023-01-29T05:28:07.493Z,-7.06
2023-01-29T05:28:36.557Z,-7.06
2023-01-29T05:28:56.204Z,-7.06
2023-01-29T05:29:27.448Z,-7.06
2023-01-29T05:29:59.203Z,-7.06
2023-01-29T05:30:32.844Z,-7.06
2023-01-29T05:31:03.346Z,-7.06
2023-01-29T05:31:35.178Z,-7.06
2023-01-29T05:32:07.411Z,-7.06
2023-01-29T05:32:36.590Z,-7.06
2023-01-29T05:32:55.292Z,-7.06
2023-01-29T05:33:27.610Z,-7.06
2023-01-29T05:33:59.300Z,-7.06
2023-01-29T05:34:31.367Z,-7.17
2023-01-29T05:35:04.251Z,-7.17
2023-01-29T05:35:35.324Z,-7.17
2023-01-29T05:36:07.456Z,-7.17
2023-01-29T05:36:36.475Z,-7.17
2023-01-29T05:36:55.335Z,-7.17
2023-01-29T05:37:27.546Z,-7.17
2023-01-29T05:37:59.299Z,-7.17
2023-01-29T05:38:31.309Z,-7.17
2023-01-29T05:39:03.218Z,-7.17
2023-01-29T05:39:36.094Z,-7.17
2023-01-29T05:40:08.101Z,-7.17
2023-01-29T05:40:37.072Z,-7.17
2023-01-29T05:40:55.777Z,-7.17
2023-01-29T05:41:27.542Z,-7.17
2023-01-29T05:41:59.231Z,-7.17
2023-01-29T05:42:31.383Z,-7.17
2023-01-29T05:43:03.186Z,-7.30
2023-01-29T05:43:35.400Z,-7.30
2023-01-29T05:44:07.520Z,-7.30
2023-01-29T05:44:37.191Z,-7.30
2023-01-29T05:44:55.320Z,-7.30
2023-01-29T05:45:28.440Z,-7.30
2023-01-29T05:45:59.672Z,-7.30
2023-01-29T05:46:31.425Z,-7.19
2023-01-29T05:47:03.292Z,-7.19
2023-01-29T05:47:35.710Z,-7.19
2023-01-29T05:48:07.410Z,-7.19
2023-01-29T05:48:36.648Z,-7.19
2023-01-29T05:48:55.332Z,-7.19
2023-01-29T05:49:27.500Z,-7.30
2023-01-29T05:49:59.716Z,-7.30
2023-01-29T05:50:31.735Z,-7.30
2023-01-29T05:51:03.556Z,-7.30
2023-01-29T05:51:35.611Z,-7.30
2023-01-29T05:52:07.529Z,-7.30
2023-01-29T05:52:36.597Z,-7.42
2023-01-29T05:52:55.326Z,-7.42
2023-01-29T05:53:27.455Z,-7.42
2023-01-29T05:53:59.188Z,-7.42
2023-01-29T05:54:31.386Z,-7.42
2023-01-29T05:55:04.408Z,-7.42
2023-01-29T05:55:35.339Z,-7.53
2023-01-29T05:56:07.546Z,-7.53
2023-01-29T05:56:36.486Z,-7.53
2023-01-29T05:56:55.413Z,-7.53
2023-01-29T05:57:27.462Z,-7.53
2023-01-29T05:57:59.235Z,-7.53
2023-01-29T05:58:31.428Z,-7.53
2023-01-29T05:59:03.372Z,-7.53
2023-01-29T05:59:35.355Z,-7.53
2023-01-29T06:00:09.778Z,-7.53
2023-01-29T06:00:36.624Z,-7.53
2023-01-29T06:00:55.827Z,-7.42
2023-01-29T06:01:27.413Z,-7.42
2023-01-29T06:01:59.322Z,-7.42
2023-01-29T06:02:31.372Z,-7.42
2023-01-29T06:03:03.448Z,-7.42
2023-01-29T06:03:35.469Z,-7.42
2023-01-29T06:04:07.482Z,-7.42
2023-01-29T06:04:36.992Z,-7.42
2023-01-29T06:04:55.522Z,-7.42
2023-01-29T06:05:27.923Z,-7.42
2023-01-29T06:05:59.567Z,-7.42
2023-01-29T06:06:31.497Z,-7.42
2023-01-29T06:07:03.329Z,-7.42
2023-01-29T06:07:35.418Z,-7.42
2023-01-29T06:08:07.469Z,-7.42
2023-01-29T06:08:36.626Z,-7.42
2023-01-29T06:08:55.326Z,-7.42
2023-01-29T06:09:27.371Z,-7.42
2023-01-29T06:09:59.276Z,-7.30
2023-01-29T06:10:31.840Z,-7.30
2023-01-29T06:11:03.359Z,-7.30
2023-01-29T06:11:35.539Z,-7.30
2023-01-29T06:12:07.558Z,-7.30
2023-01-29T06:12:36.462Z,-7.30
2023-01-29T06:12:55.340Z,-7.30
2023-01-29T06:13:27.533Z,-7.30
2023-01-29T06:13:59.312Z,-7.30
2023-01-29T06:14:31.468Z,-7.30
2023-01-29T06:15:05.104Z,-7.42
2023-01-29T06:15:35.499Z,-7.42
2023-01-29T06:16:07.525Z,-7.42
2023-01-29T06:16:36.691Z,-7.42
2023-01-29T06:16:55.402Z,-7.42